Birmingham, AL (35210)

2:18 AM CDT on August 30, 2015 (GMT -0500)
H2OUSE | | Change Station
CLOSE
Current Station
Personal Weather Station
Location: Irondale, AL
Elevation: 801 ft
Nearby Weather Stations

Elev 801 ft 33.54 °N, 86.71 °W | Updated 2 minutes ago

Rain
Rain
69.4 °F
Feels Like 69.4 °F
N
0.0
Wind Variable Wind from East
Gusts 0.7 mph

Today
High -- | Low -- °F
--% Chance of Precip.
Yesterday
High -- | Low -- °F
Precip. -- in
6:19 AM 7:15 PM
Full, 100% visible
Pressure 30.08 in
Visibility 10.0 miles
Clouds Overcast 7500 ft
Dew Point 69 °F
Humidity 99%
Rainfall 0.00 in
Snow Depth Not available.
UV 0 out of 12
Pollen 8.50 out of 12
Air Quality Not available.
Flu Activity Not available.
METAR KBHM 300653Z 02004KT 10SM OVC075 22/21 A3010 RMK AO2 RAE38 SLP185 P0000 T02170206 $
Pressure 30.08 in
Visibility 10.0 miles
Clouds Overcast 7500 ft
Dew Point 69 °F
Humidity 99%
Rainfall 0.00 in
Snow Depth Not available.
UV 0 out of 12
Pollen 8.50 out of 12
Air Quality Not available.
Flu Activity Not available.
METAR KBHM 300653Z 02004KT 10SM OVC075 22/21 A3010 RMK AO2 RAE38 SLP185 P0000 T02170206 $

10-Day Weather Forecast

×

Almanac

Astronomy

Aug. 30, 2015 Rise Set
Actual Time
Civil Twilight
Nautical Twilight
Astronomical Twilight
Moon
Length of Visible Light
Length of Day
Tomorrow will be .
, % of the Moon is Illuminated

Today's Extremes

State Highs State Lows

Community

WunderPhotos

Upload Photos

1,850,904 photos uploaded!

WunderBlogs® & News

Nearby

Air Quality

  Air Quality AQ Index Pollutant
Not available.

Snow Depth

Station Depth Elevation

Earthquake Activity

City Distance Mag. Time & Date
Minimum magnitude displayed is 2.5.

Coastal Water Temperatures

Place Temperature

Stations

Nearby Weather Stations

Station Location Temp. Windchill Dew Point Humidity Wind Precip. Elev Updated Type